Time;durP1;ratioP1;P1;durP2;ratioP2;P2;SDS_P1;SDS_P2;PMS_P1;PMS_P2;Temp;Humidity;BMP_temperature;BMP_pressure;BME280_temperature;BME280_humidity;BME280_pressure;Samples;Min_cycle;Max_cycle;Signal;HPM_P1;HPM_P2
2022/12/14 00:00:43;;;;;;;20.43;14.03;;;-3.00;99.90;;;;;;5017258;28;20492;-68
2022/12/14 00:03:11;;;;;;;21.27;13.63;;;-3.00;99.90;;;;;;5017161;28;20500;-68
2022/12/14 00:05:37;;;;;;;22.87;14.80;;;-3.00;99.90;;;;;;5016960;28;20492;-69
2022/12/14 00:08:05;;;;;;;21.17;14.30;;;-3.00;99.90;;;;;;5017014;28;20950;-69
2022/12/14 00:10:33;;;;;;;22.17;14.50;;;-3.10;99.90;;;;;;5016701;28;20550;-67
2022/12/14 00:13:02;;;;;;;22.60;15.73;;;-3.10;99.90;;;;;;5017030;28;20461;-68
2022/12/14 00:15:29;;;;;;;22.47;14.60;;;-3.20;99.90;;;;;;5016772;28;20519;-69
2022/12/14 00:17:56;;;;;;;24.07;15.90;;;-3.20;99.90;;;;;;5016727;28;20456;-69
2022/12/14 00:20:23;;;;;;;24.30;15.57;;;-3.20;99.90;;;;;;5016285;28;20547;-68
2022/12/14 00:22:50;;;;;;;25.10;15.97;;;-3.20;99.90;;;;;;5016812;28;20547;-69
2022/12/14 00:25:17;;;;;;;25.30;15.50;;;-3.20;99.90;;;;;;5016973;28;20496;-69
2022/12/14 00:27:45;;;;;;;20.27;15.00;;;-3.30;99.90;;;;;;5016442;28;20890;-69
2022/12/14 00:30:16;;;;;;;22.37;15.93;;;-3.30;99.90;;;;;;5016370;28;20452;-68
2022/12/14 00:32:43;;;;;;;27.27;16.07;;;-3.20;99.90;;;;;;5017354;28;20528;-68
2022/12/14 00:35:12;;;;;;;24.30;17.37;;;-3.30;99.90;;;;;;5016681;28;20471;-68
2022/12/14 00:37:39;;;;;;;25.07;15.70;;;-3.30;99.90;;;;;;5015995;28;20452;-69
2022/12/14 00:40:08;;;;;;;25.27;17.10;;;-3.30;99.90;;;;;;5016546;28;20549;-69
2022/12/14 00:42:35;;;;;;;25.47;15.57;;;-3.30;99.90;;;;;;5016063;28;20519;-68
2022/12/14 00:45:03;;;;;;;24.97;16.67;;;-3.30;99.90;;;;;;5016236;28;20456;-68
2022/12/14 00:47:31;;;;;;;25.50;15.90;;;-3.30;99.90;;;;;;5015526;28;20524;-69
2022/12/14 00:49:58;;;;;;;25.70;15.93;;;-3.30;99.90;;;;;;5015843;28;20457;-69
2022/12/14 00:52:25;;;;;;;22.63;15.57;;;-3.30;99.90;;;;;;5015943;28;20461;-69
2022/12/14 00:54:51;;;;;;;25.60;16.17;;;-3.40;99.90;;;;;;5016595;28;20551;-68
2022/12/14 00:57:18;;;;;;;26.63;16.93;;;-3.40;99.90;;;;;;5016353;28;20499;-69
2022/12/14 00:59:45;;;;;;;24.57;16.70;;;-3.30;99.90;;;;;;5016818;28;20543;-69
2022/12/14 01:02:12;;;;;;;26.90;16.77;;;-3.30;99.90;;;;;;5017227;28;20525;-68
2022/12/14 01:04:40;;;;;;;23.70;15.53;;;-3.30;99.90;;;;;;5016742;28;20548;-69
2022/12/14 01:07:07;;;;;;;28.87;17.10;;;-3.40;99.90;;;;;;5015935;28;20465;-67
2022/12/14 01:09:34;;;;;;;26.40;16.57;;;-3.40;99.90;;;;;;5015922;28;20489;-68
2022/12/14 01:12:00;;;;;;;27.27;17.80;;;-3.40;99.90;;;;;;5015044;28;20457;-69
2022/12/14 01:14:27;;;;;;;27.23;17.10;;;-3.40;99.90;;;;;;5015606;28;20471;-69
2022/12/14 01:16:54;;;;;;;27.23;17.93;;;-3.50;99.90;;;;;;5015418;28;20648;-68
2022/12/14 01:19:21;;;;;;;28.50;17.00;;;-3.50;99.90;;;;;;5015418;28;20453;-67
2022/12/14 01:21:49;;;;;;;29.20;18.43;;;-3.50;99.90;;;;;;5016974;28;20461;-70
2022/12/14 01:24:16;;;;;;;24.47;16.50;;;-3.50;99.90;;;;;;5017927;28;20997;-68
2022/12/14 01:26:43;;;;;;;28.37;16.70;;;-3.50;99.90;;;;;;5015279;28;20496;-69
2022/12/14 01:29:11;;;;;;;28.53;17.27;;;-3.50;99.90;;;;;;5015283;28;20542;-70
2022/12/14 01:31:38;;;;;;;26.30;16.40;;;-3.50;99.90;;;;;;5015371;28;20457;-67
2022/12/14 01:34:06;;;;;;;27.40;17.57;;;-3.50;99.90;;;;;;5015694;28;20472;-69
2022/12/14 01:36:34;;;;;;;27.33;17.90;;;-3.60;99.90;;;;;;5015258;28;20457;-69
2022/12/14 01:39:08;;;;;;;29.07;18.87;;;-3.60;99.90;;;;;;5017128;28;20453;-69
2022/12/14 01:41:37;;;;;;;31.27;18.47;;;-3.60;99.90;;;;;;5018796;28;20484;-68
2022/12/14 01:44:42;;;;;;;26.30;17.40;;;-3.70;99.90;;;;;;5018962;28;20465;-68
2022/12/14 01:47:18;;;;;;;24.83;16.53;;;-3.70;99.90;;;;;;5018402;28;20480;-70
2022/12/14 01:49:50;;;;;;;28.23;17.70;;;-3.80;99.90;;;;;;5018686;28;20559;-68
2022/12/14 01:52:21;;;;;;;26.60;18.00;;;-3.90;99.90;;;;;;5018649;28;20894;-67
2022/12/14 01:54:54;;;;;;;25.47;18.00;;;-3.90;99.90;;;;;;5018767;28;20531;-69
2022/12/14 01:57:25;;;;;;;26.00;16.80;;;-3.90;99.90;;;;;;5018600;28;20532;-69
2022/12/14 01:59:53;;;;;;;24.07;16.90;;;-3.90;99.90;;;;;;5018946;28;20551;-68
2022/12/14 02:02:21;;;;;;;27.20;17.77;;;-3.90;99.90;;;;;;5018439;28;20781;-69
2022/12/14 02:04:53;;;;;;;26.67;17.47;;;-4.00;99.90;;;;;;5018045;28;20457;-68
2022/12/14 02:07:21;;;;;;;29.43;18.03;;;-4.00;99.90;;;;;;5018247;28;20784;-69
2022/12/14 02:09:52;;;;;;;26.10;17.20;;;-4.10;99.90;;;;;;5018243;28;20807;-68
2022/12/14 02:12:25;;;;;;;24.47;16.80;;;-4.10;99.90;;;;;;5018298;28;20444;-69
2022/12/14 02:14:53;;;;;;;27.60;17.20;;;-4.10;99.90;;;;;;5018071;28;20451;-69
2022/12/14 02:17:20;;;;;;;28.43;19.63;;;-4.20;99.90;;;;;;5017883;28;21008;-69
2022/12/14 02:19:48;;;;;;;25.67;16.90;;;-4.30;99.90;;;;;;5018080;28;20463;-68
2022/12/14 02:22:35;;;;;;;27.87;17.13;;;-4.20;99.90;;;;;;5017733;28;20456;-68
2022/12/14 02:25:39;;;;;;;29.97;17.67;;;-4.30;99.90;;;;;;5018241;28;20839;-67
2022/12/14 02:28:36;;;;;;;38.83;18.80;;;-4.20;99.90;;;;;;4957914;29;20486;-69
2022/12/14 02:31:14;;;;;;;27.67;18.00;;;-4.20;99.90;;;;;;5018172;28;20898;-68
2022/12/14 02:33:48;;;;;;;30.33;18.67;;;-4.30;99.90;;;;;;5017954;28;20484;-68
2022/12/14 02:36:24;;;;;;;30.40;19.17;;;-4.40;99.90;;;;;;5017763;28;20531;-69
2022/12/14 02:38:58;;;;;;;31.90;17.87;;;-4.40;99.90;;;;;;5017527;28;20447;-68
2022/12/14 02:41:37;;;;;;;29.43;18.70;;;-4.40;99.90;;;;;;5017912;28;20544;-67
2022/12/14 02:44:11;;;;;;;28.33;16.97;;;-4.40;99.90;;;;;;5017886;28;20768;-68
2022/12/14 02:46:42;;;;;;;31.70;19.33;;;-4.40;99.90;;;;;;5017484;28;20579;-68
2022/12/14 02:49:15;;;;;;;32.13;20.00;;;-4.40;99.90;;;;;;5017080;28;20555;-67
2022/12/14 02:51:52;;;;;;;27.40;17.90;;;-4.40;99.90;;;;;;5016701;28;20442;-68
2022/12/14 02:54:25;;;;;;;26.27;17.23;;;-4.50;99.90;;;;;;5017581;28;20445;-68
2022/12/14 02:56:59;;;;;;;28.97;19.47;;;-4.50;99.90;;;;;;5017930;28;20531;-68
2022/12/14 02:59:28;;;;;;;29.00;19.43;;;-4.50;99.90;;;;;;5017225;28;20773;-68
2022/12/14 03:01:57;;;;;;;23.90;16.07;;;-4.50;99.90;;;;;;5017256;28;20547;-68
2022/12/14 03:04:24;;;;;;;33.27;18.60;;;-4.50;99.90;;;;;;5017382;28;20526;-68
2022/12/14 03:07:01;;;;;;;29.70;18.40;;;-4.50;99.90;;;;;;5017331;28;20461;-67
2022/12/14 03:09:31;;;;;;;39.37;18.83;;;-4.50;99.90;;;;;;5016864;28;21012;-69
2022/12/14 03:12:01;;;;;;;29.07;18.47;;;-4.50;99.90;;;;;;5017329;28;20548;-67
2022/12/14 03:14:32;;;;;;;26.80;16.57;;;-4.50;99.90;;;;;;5017411;28;20456;-67
2022/12/14 03:17:04;;;;;;;29.00;19.40;;;-4.50;99.90;;;;;;5017524;28;20743;-68
2022/12/14 03:19:37;;;;;;;29.20;17.60;;;-4.50;99.90;;;;;;5017140;28;20446;-66
2022/12/14 03:22:07;;;;;;;27.83;18.20;;;-4.60;99.90;;;;;;5016970;28;20531;-69
2022/12/14 03:24:38;;;;;;;29.50;18.00;;;-4.60;99.90;;;;;;5016444;28;20467;-67
2022/12/14 03:27:11;;;;;;;25.27;17.60;;;-4.60;99.90;;;;;;5016555;28;20526;-69
2022/12/14 03:29:41;;;;;;;32.40;18.97;;;-4.60;99.90;;;;;;5016850;28;20789;-68
2022/12/14 03:32:12;;;;;;;29.20;17.90;;;-4.60;99.90;;;;;;5017353;28;20792;-68
2022/12/14 03:34:44;;;;;;;31.27;18.30;;;-4.60;99.90;;;;;;5017511;28;20544;-67
2022/12/14 03:37:14;;;;;;;26.63;17.07;;;-4.60;99.90;;;;;;5016990;28;20544;-67
2022/12/14 03:39:43;;;;;;;26.00;17.87;;;-4.60;99.90;;;;;;5017346;28;20449;-68
2022/12/14 03:42:19;;;;;;;32.20;18.87;;;-4.60;99.90;;;;;;5016230;28;20547;-67
2022/12/14 03:44:55;;;;;;;27.47;17.80;;;-4.60;99.90;;;;;;5016597;28;20535;-68
2022/12/14 03:47:42;;;;;;;32.47;19.93;;;-4.60;99.90;;;;;;5016312;28;20488;-68
2022/12/14 03:50:14;;;;;;;26.33;17.50;;;-4.60;99.90;;;;;;5016350;28;20469;-68
2022/12/14 03:52:48;;;;;;;27.07;18.93;;;-4.70;99.90;;;;;;5020184;28;20498;-67
2022/12/14 03:55:23;;;;;;;29.30;19.50;;;-4.70;99.90;;;;;;5017419;28;20446;-69
2022/12/14 03:58:01;;;;;;;25.10;15.73;;;-4.70;99.90;;;;;;5016430;28;20844;-67
2022/12/14 04:00:32;;;;;;;27.60;18.50;;;-4.70;99.90;;;;;;5016351;28;20764;-69
2022/12/14 04:03:08;;;;;;;28.30;17.77;;;-4.70;99.90;;;;;;5015452;28;20894;-68
2022/12/14 04:05:41;;;;;;;26.73;17.93;;;-4.80;99.90;;;;;;5015823;28;20521;-68
2022/12/14 04:08:15;;;;;;;33.30;19.03;;;-4.80;99.90;;;;;;5015887;28;20962;-67
2022/12/14 04:19:19;;;;;;;26.30;17.87;;;-4.90;99.90;;;;;;4998468;28;20441;-67
2022/12/14 04:21:49;;;;;;;30.90;18.60;;;-4.90;99.90;;;;;;5016018;28;20540;-69
2022/12/14 04:27:15;;;;;;;24.27;17.20;;;-4.90;99.90;;;;;;5015913;28;20472;-68
2022/12/14 04:29:59;;;;;;;32.90;19.00;;;-4.90;99.90;;;;;;5015219;28;20490;-69
2022/12/14 04:32:31;;;;;;;26.30;17.63;;;-4.80;99.90;;;;;;5015680;28;20453;-68
2022/12/14 04:35:04;;;;;;;30.10;18.70;;;-4.80;99.90;;;;;;5015410;28;20533;-69
2022/12/14 04:37:34;;;;;;;28.30;17.87;;;-4.80;99.90;;;;;;5015428;28;20540;-68
2022/12/14 04:40:07;;;;;;;26.30;17.27;;;-4.80;99.90;;;;;;5015261;28;20544;-69
2022/12/14 04:42:40;;;;;;;26.57;16.20;;;-4.80;99.90;;;;;;5015073;28;20909;-68
2022/12/14 04:45:10;;;;;;;32.63;19.73;;;-4.90;99.90;;;;;;5015462;28;20524;-68
2022/12/14 04:47:44;;;;;;;29.00;18.30;;;-4.90;99.90;;;;;;5015180;28;20571;-68
2022/12/14 04:50:17;;;;;;;30.70;18.70;;;-5.00;99.90;;;;;;5015280;28;20465;-69
2022/12/14 04:52:47;;;;;;;30.10;18.37;;;-5.00;99.90;;;;;;5015237;28;20879;-69
2022/12/14 04:55:21;;;;;;;30.50;19.80;;;-5.00;99.90;;;;;;5015321;28;20821;-69
2022/12/14 04:57:53;;;;;;;31.80;18.90;;;-5.10;99.90;;;;;;5015167;28;20528;-67
2022/12/14 05:00:19;;;;;;;28.20;18.00;;;-5.20;99.90;;;;;;5015353;28;20541;-68
2022/12/14 05:03:16;;;;;;;29.63;19.30;;;-5.20;99.90;;;;;;5015154;28;20552;-67
2022/12/14 05:05:56;;;;;;;27.93;17.87;;;-5.20;99.90;;;;;;5014975;28;20478;-69
2022/12/14 05:08:34;;;;;;;26.97;16.63;;;-5.20;99.90;;;;;;5015197;28;20453;-69
2022/12/14 05:11:07;;;;;;;29.53;18.90;;;-5.20;99.90;;;;;;5015220;28;20566;-69
2022/12/14 05:13:39;;;;;;;28.30;18.40;;;-5.20;99.90;;;;;;5016534;28;20826;-68
2022/12/14 05:16:07;;;;;;;32.40;19.93;;;-5.20;99.90;;;;;;5018772;28;20441;-68
2022/12/14 05:18:34;;;;;;;26.60;17.40;;;-5.20;99.90;;;;;;5019187;28;20479;-69
2022/12/14 05:21:02;;;;;;;29.03;17.50;;;-5.20;99.90;;;;;;5018969;28;20543;-68
2022/12/14 05:23:29;;;;;;;28.33;19.53;;;-5.20;99.90;;;;;;5018542;28;20463;-68
2022/12/14 05:25:56;;;;;;;26.10;17.70;;;-5.10;99.90;;;;;;5018886;28;20556;-68
2022/12/14 05:28:22;;;;;;;31.53;17.60;;;-5.10;99.90;;;;;;5018947;28;20989;-68
2022/12/14 05:30:49;;;;;;;29.50;18.47;;;-5.10;99.90;;;;;;5018217;28;20568;-67
2022/12/14 05:33:18;;;;;;;28.57;18.00;;;-5.10;99.90;;;;;;5018782;28;20549;-67
2022/12/14 05:35:45;;;;;;;27.93;18.23;;;-5.10;99.90;;;;;;5018688;28;20456;-69
2022/12/14 05:38:13;;;;;;;28.43;18.07;;;-5.10;99.90;;;;;;5019088;28;20457;-68
2022/12/14 05:40:40;;;;;;;26.10;17.10;;;-5.00;99.90;;;;;;5018745;28;20467;-68
2022/12/14 05:43:09;;;;;;;26.37;17.20;;;-5.10;99.90;;;;;;5018478;28;20471;-67
2022/12/14 05:45:36;;;;;;;27.80;18.00;;;-5.30;99.90;;;;;;5018741;28;20650;-67
2022/12/14 05:48:03;;;;;;;29.63;17.70;;;-5.30;99.90;;;;;;5018408;28;20455;-67
2022/12/14 05:50:30;;;;;;;29.30;16.80;;;-5.30;99.90;;;;;;5018608;28;20485;-67
2022/12/14 05:52:57;;;;;;;42.73;24.90;;;-5.30;99.90;;;;;;5018294;28;20543;-68
2022/12/14 05:55:25;;;;;;;31.70;20.30;;;-5.30;99.90;;;;;;5018588;28;20527;-68
2022/12/14 05:57:52;;;;;;;20.90;16.00;;;-5.20;99.90;;;;;;5018420;28;20799;-69
2022/12/14 06:00:19;;;;;;;30.70;17.67;;;-5.30;99.90;;;;;;5018202;28;20463;-69
2022/12/14 06:02:46;;;;;;;27.60;18.00;;;-5.30;99.90;;;;;;5018374;28;20788;-68
2022/12/14 06:05:13;;;;;;;28.13;17.80;;;-5.30;99.90;;;;;;5018347;28;20480;-67
2022/12/14 06:07:40;;;;;;;25.27;17.20;;;-5.30;99.90;;;;;;5017953;28;20556;-68
2022/12/14 06:10:07;;;;;;;24.40;16.73;;;-5.30;99.90;;;;;;5017589;28;20476;-69
2022/12/14 06:12:35;;;;;;;28.47;17.53;;;-5.20;99.90;;;;;;5018200;28;20551;-68
2022/12/14 06:15:03;;;;;;;27.33;19.37;;;-5.20;99.90;;;;;;5017744;28;20457;-68
2022/12/14 06:17:30;;;;;;;27.77;17.27;;;-5.20;99.90;;;;;;5018082;28;20464;-67
2022/12/14 06:19:56;;;;;;;29.37;17.13;;;-5.20;99.90;;;;;;5018032;28;20452;-68
2022/12/14 06:22:24;;;;;;;27.40;18.10;;;-5.10;99.90;;;;;;5018232;28;20456;-67
2022/12/14 06:24:51;;;;;;;25.97;15.33;;;-5.10;99.90;;;;;;5017468;28;20456;-69
2022/12/14 06:27:18;;;;;;;23.83;16.23;;;-5.10;99.90;;;;;;5017762;28;20460;-68
2022/12/14 06:29:46;;;;;;;25.40;16.70;;;-5.10;99.90;;;;;;5017725;28;20491;-68
2022/12/14 06:32:13;;;;;;;29.20;17.27;;;-5.10;99.90;;;;;;5018233;28;20456;-69
2022/12/14 06:34:40;;;;;;;27.63;16.60;;;-5.10;99.90;;;;;;5017980;28;20548;-69
2022/12/14 06:37:07;;;;;;;23.93;16.97;;;-5.10;99.90;;;;;;5017820;28;20460;-67
2022/12/14 06:39:33;;;;;;;26.30;18.30;;;-5.10;99.90;;;;;;5017763;28;20770;-68
2022/12/14 06:42:00;;;;;;;25.20;18.23;;;-5.10;99.90;;;;;;5017676;28;20467;-68
2022/12/14 06:44:27;;;;;;;28.63;14.67;;;-5.20;99.90;;;;;;5017700;28;20978;-69
2022/12/14 06:46:55;;;;;;;30.87;17.13;;;-5.10;99.90;;;;;;5017375;28;20580;-69
2022/12/14 06:49:22;;;;;;;27.80;17.20;;;-5.10;99.90;;;;;;5017239;28;21029;-69
2022/12/14 06:51:49;;;;;;;36.20;21.03;;;-5.10;99.90;;;;;;5017164;28;20467;-68
2022/12/14 06:54:17;;;;;;;23.40;16.60;;;-5.10;99.90;;;;;;5017012;28;20540;-68
2022/12/14 06:56:45;;;;;;;28.10;17.90;;;-5.10;99.90;;;;;;5017014;28;20461;-68
2022/12/14 06:59:13;;;;;;;29.83;17.00;;;-5.10;99.90;;;;;;5020203;28;20548;-68
2022/12/14 07:01:41;;;;;;;24.57;17.67;;;-5.10;99.90;;;;;;5016878;28;20556;-69
2022/12/14 07:04:09;;;;;;;25.67;16.50;;;-5.10;99.90;;;;;;5017236;28;20527;-68
2022/12/14 07:06:38;;;;;;;26.47;15.47;;;-5.10;99.90;;;;;;5017339;28;20560;-69
2022/12/14 07:09:06;;;;;;;33.03;17.83;;;-5.10;99.90;;;;;;5017270;28;20839;-69
2022/12/14 07:11:33;;;;;;;31.37;17.27;;;-5.00;99.90;;;;;;5018560;28;20485;-68
2022/12/14 07:14:04;;;;;;;24.30;16.50;;;-5.10;99.90;;;;;;5017519;28;20547;-69
2022/12/14 07:16:32;;;;;;;25.70;16.63;;;-5.00;99.90;;;;;;5017024;28;20495;-67
2022/12/14 07:18:59;;;;;;;23.80;15.23;;;-5.00;99.90;;;;;;5016687;28;20460;-68
2022/12/14 07:21:28;;;;;;;27.97;17.17;;;-5.10;99.90;;;;;;5016806;28;20514;-68
2022/12/14 07:23:55;;;;;;;27.57;17.00;;;-5.10;99.90;;;;;;5016980;28;20786;-68
2022/12/14 07:26:23;;;;;;;25.10;17.30;;;-5.00;99.90;;;;;;5016664;28;20937;-68
2022/12/14 07:28:51;;;;;;;24.60;15.37;;;-5.00;99.90;;;;;;5016572;28;20551;-68
2022/12/14 07:31:21;;;;;;;29.10;17.83;;;-5.00;99.90;;;;;;5016086;28;20493;-68
2022/12/14 07:33:48;;;;;;;27.20;16.70;;;-5.00;99.90;;;;;;5016838;28;20507;-69
2022/12/14 07:36:17;;;;;;;27.97;17.40;;;-5.00;99.90;;;;;;5015765;28;20779;-68
2022/12/14 07:38:47;;;;;;;28.27;18.40;;;-5.00;99.90;;;;;;5016562;28;20492;-69
2022/12/14 07:41:16;;;;;;;24.83;16.70;;;-5.00;99.90;;;;;;5016710;28;20529;-69
2022/12/14 07:43:44;;;;;;;28.57;18.80;;;-4.90;99.90;;;;;;5017397;28;20470;-68
2022/12/14 07:46:13;;;;;;;27.87;18.37;;;-4.90;99.90;;;;;;5016418;28;20506;-67
2022/12/14 07:48:44;;;;;;;25.07;16.80;;;-4.90;99.90;;;;;;5016316;28;20471;-69
2022/12/14 07:51:13;;;;;;;27.57;16.83;;;-4.80;99.90;;;;;;5016895;28;20469;-69
2022/12/14 07:53:40;;;;;;;25.27;15.07;;;-4.80;99.90;;;;;;5016342;28;20460;-68
2022/12/14 07:56:11;;;;;;;29.33;17.20;;;-4.80;99.90;;;;;;5016101;28;20523;-70
2022/12/14 07:58:38;;;;;;;28.83;18.53;;;-4.70;99.90;;;;;;5016385;28;20623;-69
2022/12/14 08:01:11;;;;;;;28.97;17.20;;;-4.70;99.90;;;;;;5016312;28;20492;-69
2022/12/14 08:03:38;;;;;;;24.83;16.73;;;-4.70;99.90;;;;;;5016735;28;20519;-68
2022/12/14 08:06:07;;;;;;;26.10;17.27;;;-4.60;99.90;;;;;;5016132;28;20461;-68
2022/12/14 08:08:34;;;;;;;31.20;18.40;;;-4.60;99.90;;;;;;5016137;28;20544;-69
2022/12/14 08:11:01;;;;;;;25.43;17.47;;;-4.50;99.90;;;;;;5016188;28;20572;-70
2022/12/14 08:13:30;;;;;;;20.83;16.30;;;-4.50;99.90;;;;;;5016479;28;20452;-69
2022/12/14 08:15:56;;;;;;;29.50;19.00;;;-4.50;99.90;;;;;;5016375;28;20801;-68
2022/12/14 08:18:23;;;;;;;28.27;18.37;;;-4.50;99.90;;;;;;5016427;28;20543;-69
2022/12/14 08:20:50;;;;;;;35.10;20.20;;;-4.50;99.90;;;;;;5015750;28;20707;-68
2022/12/14 08:23:17;;;;;;;32.73;18.27;;;-4.50;99.90;;;;;;5015846;28;20843;-68
2022/12/14 08:25:44;;;;;;;25.03;16.83;;;-4.40;99.90;;;;;;5016741;28;20560;-68
2022/12/14 08:28:11;;;;;;;29.50;19.10;;;-4.30;99.90;;;;;;5016134;28;20497;-69
2022/12/14 08:30:40;;;;;;;31.03;17.40;;;-4.20;99.90;;;;;;5015454;28;20516;-69
2022/12/14 08:33:07;;;;;;;26.10;17.10;;;-4.20;99.90;;;;;;5015899;28;20760;-69
2022/12/14 08:35:34;;;;;;;29.53;18.87;;;-4.20;99.90;;;;;;5015787;28;20457;-69
2022/12/14 08:38:01;;;;;;;26.43;18.50;;;-4.20;99.90;;;;;;5015566;28;20469;-68
2022/12/14 08:40:28;;;;;;;30.27;16.30;;;-4.20;99.90;;;;;;5015611;28;20511;-69
2022/12/14 08:42:55;;;;;;;27.67;17.57;;;-4.10;99.90;;;;;;5015417;28;20547;-67
2022/12/14 08:45:22;;;;;;;35.70;17.80;;;-4.10;99.90;;;;;;5015216;28;20548;-67
2022/12/14 08:47:50;;;;;;;31.30;17.03;;;-4.10;99.90;;;;;;5015680;28;20588;-69
2022/12/14 08:50:17;;;;;;;26.87;16.87;;;-4.10;99.90;;;;;;5015757;28;20805;-68
2022/12/14 08:52:47;;;;;;;26.60;16.80;;;-4.10;99.90;;;;;;5016087;28;20949;-69
2022/12/14 08:55:14;;;;;;;29.37;20.17;;;-4.00;99.90;;;;;;5016309;28;20466;-68
2022/12/14 08:57:41;;;;;;;28.70;18.27;;;-4.00;99.90;;;;;;5015622;28;20457;-69
2022/12/14 09:00:10;;;;;;;25.90;17.93;;;-3.90;99.90;;;;;;5015913;28;20461;-68
2022/12/14 09:02:37;;;;;;;27.43;16.70;;;-3.90;99.90;;;;;;5015291;28;20486;-69
2022/12/14 09:05:05;;;;;;;25.80;15.40;;;-3.80;99.90;;;;;;5015214;28;20457;-68
2022/12/14 09:07:32;;;;;;;24.93;17.67;;;-3.80;99.90;;;;;;5015460;28;20461;-68
2022/12/14 09:09:59;;;;;;;25.27;16.97;;;-3.80;99.90;;;;;;5015139;28;20918;-67
2022/12/14 09:12:26;;;;;;;23.47;15.63;;;-3.80;99.90;;;;;;5015388;28;20467;-69
2022/12/14 09:14:53;;;;;;;25.17;16.87;;;-3.80;99.90;;;;;;5016190;28;20895;-69
2022/12/14 09:17:20;;;;;;;25.57;16.90;;;-3.70;99.90;;;;;;5015468;28;20539;-69
2022/12/14 09:19:47;;;;;;;26.03;15.67;;;-3.70;99.90;;;;;;5015572;28;20463;-67
2022/12/14 09:22:15;;;;;;;23.87;15.50;;;-3.70;99.90;;;;;;5015726;28;20452;-67
2022/12/14 09:24:42;;;;;;;21.43;14.70;;;-3.70;99.90;;;;;;5015661;28;20591;-68
2022/12/14 09:27:08;;;;;;;24.90;16.73;;;-3.70;99.90;;;;;;5016155;28;20785;-68
2022/12/14 09:29:35;;;;;;;27.50;17.00;;;-3.60;99.90;;;;;;5015464;28;20456;-68
2022/12/14 09:32:02;;;;;;;23.37;15.20;;;-3.60;99.90;;;;;;5015344;28;20571;-69
2022/12/14 09:34:29;;;;;;;25.73;17.37;;;-3.50;99.90;;;;;;5015289;28;20551;-69
2022/12/14 09:36:56;;;;;;;24.20;17.17;;;-3.40;99.90;;;;;;5015628;28;20984;-68
2022/12/14 09:39:25;;;;;;;25.40;16.40;;;-3.40;99.90;;;;;;5016371;28;20540;-68
2022/12/14 09:42:01;;;;;;;24.70;17.13;;;-3.30;99.90;;;;;;5015147;28;20453;-69
2022/12/14 09:44:42;;;;;;;24.30;16.00;;;-3.30;99.90;;;;;;5017282;28;20450;-69
2022/12/14 09:47:15;;;;;;;27.40;15.53;;;-3.30;99.90;;;;;;5017353;28;20485;-69
2022/12/14 09:49:46;;;;;;;26.40;16.47;;;-3.20;99.90;;;;;;5015565;28;20480;-69
2022/12/14 09:52:20;;;;;;;26.07;18.10;;;-3.10;99.90;;;;;;5016422;28;20479;-68
2022/12/14 09:54:51;;;;;;;24.70;17.77;;;-3.10;99.90;;;;;;5015802;28;20456;-68
2022/12/14 09:57:25;;;;;;;25.07;16.53;;;-3.00;99.90;;;;;;5015297;28;20524;-68
2022/12/14 09:59:53;;;;;;;30.80;16.83;;;-2.90;99.90;;;;;;5017244;28;20444;-69
2022/12/14 10:02:38;;;;;;;23.83;15.90;;;-2.80;99.90;;;;;;5019195;28;20457;-69
2022/12/14 10:05:23;;;;;;;23.40;16.13;;;-2.70;99.90;;;;;;5018344;28;20452;-70
2022/12/14 10:08:01;;;;;;;38.60;16.60;;;-2.50;99.90;;;;;;5019141;28;20441;-68
2022/12/14 10:10:40;;;;;;;35.80;18.33;;;-2.50;99.90;;;;;;5019866;28;20480;-68
2022/12/14 10:13:17;;;;;;;25.87;16.97;;;-2.40;99.90;;;;;;5019975;28;20468;-69
2022/12/14 10:15:55;;;;;;;28.03;17.90;;;-2.30;99.90;;;;;;5020088;28;20868;-69
2022/12/14 10:18:35;;;;;;;25.97;15.93;;;-2.20;99.90;;;;;;5020002;28;20469;-70
2022/12/14 10:21:05;;;;;;;29.53;17.23;;;-2.10;99.90;;;;;;5019081;28;20441;-68
2022/12/14 10:23:34;;;;;;;27.53;16.03;;;-2.00;99.90;;;;;;5019663;28;20461;-70
2022/12/14 10:26:07;;;;;;;26.20;17.47;;;-2.00;99.90;;;;;;5019553;28;20457;-68
2022/12/14 10:28:43;;;;;;;29.27;14.80;;;-1.90;99.90;;;;;;5018629;28;20507;-68
2022/12/14 10:31:17;;;;;;;24.10;15.63;;;-1.80;99.90;;;;;;5018526;28;20559;-69
2022/12/14 10:33:46;;;;;;;21.00;15.07;;;-1.80;99.90;;;;;;5018654;28;20531;-68
2022/12/14 10:36:19;;;;;;;29.80;15.93;;;-1.70;99.90;;;;;;5018733;28;20463;-69
2022/12/14 10:38:52;;;;;;;21.17;14.73;;;-1.60;99.90;;;;;;5019561;28;20445;-68
2022/12/14 10:41:30;;;;;;;22.50;15.50;;;-1.50;99.90;;;;;;5018726;28;20778;-68
2022/12/14 10:44:06;;;;;;;21.90;14.93;;;-1.40;99.90;;;;;;5019494;28;20469;-69
2022/12/14 10:46:41;;;;;;;19.87;14.90;;;-1.40;99.90;;;;;;5018867;28;20488;-70
2022/12/14 10:49:16;;;;;;;25.43;14.87;;;-1.30;99.90;;;;;;5019339;28;20444;-68
2022/12/14 10:51:47;;;;;;;22.83;15.07;;;-1.30;99.90;;;;;;5018495;28;20563;-68
2022/12/14 10:54:25;;;;;;;25.00;15.30;;;-1.20;99.90;;;;;;5018732;28;20536;-68
2022/12/14 10:56:53;;;;;;;21.60;14.17;;;-1.20;99.90;;;;;;5018451;28;20445;-68
2022/12/14 10:59:34;;;;;;;24.70;16.17;;;-1.30;99.90;;;;;;5018338;28;20488;-68
2022/12/14 11:02:07;;;;;;;24.13;15.83;;;-1.30;99.90;;;;;;5018857;28;20536;-68
2022/12/14 11:04:37;;;;;;;21.40;14.53;;;-1.20;99.90;;;;;;5017849;28;20483;-69
2022/12/14 11:07:07;;;;;;;22.43;14.70;;;-1.10;99.90;;;;;;5018106;28;20457;-70
2022/12/14 11:09:35;;;;;;;24.43;16.87;;;-1.10;99.90;;;;;;5017557;28;20838;-69
2022/12/14 11:12:07;;;;;;;22.07;14.83;;;-0.90;99.90;;;;;;5016322;28;20500;-69
2022/12/14 11:14:35;;;;;;;20.87;14.40;;;-0.80;99.90;;;;;;5017273;28;20461;-68
2022/12/14 11:17:02;;;;;;;23.20;16.93;;;-0.80;99.90;;;;;;5017876;28;20456;-68
2022/12/14 11:19:29;;;;;;;20.37;14.63;;;-0.70;99.90;;;;;;5018052;28;20539;-69
2022/12/14 11:22:10;;;;;;;33.37;21.63;;;-0.60;99.90;;;;;;5017693;28;20465;-68
2022/12/14 11:24:45;;;;;;;23.17;15.17;;;-0.50;99.90;;;;;;5018468;28;20945;-69
2022/12/14 11:27:18;;;;;;;22.30;15.10;;;-0.50;99.90;;;;;;5017821;28;20452;-68
2022/12/14 11:29:48;;;;;;;25.90;15.60;;;-0.50;99.90;;;;;;5017751;28;20950;-68
2022/12/14 11:32:24;;;;;;;24.47;16.30;;;-0.50;99.90;;;;;;5018000;28;20484;-69
2022/12/14 11:35:00;;;;;;;24.70;16.10;;;-0.50;99.90;;;;;;5017992;28;20507;-68
2022/12/14 11:37:29;;;;;;;22.40;14.30;;;-0.50;99.90;;;;;;5018673;28;20636;-68
2022/12/14 11:39:59;;;;;;;19.93;14.73;;;-0.40;99.90;;;;;;5017840;28;20543;-68
2022/12/14 11:42:27;;;;;;;26.97;16.00;;;-0.40;99.90;;;;;;5018389;28;20489;-68
2022/12/14 11:44:54;;;;;;;21.63;14.20;;;-0.30;99.90;;;;;;5017887;28;20809;-69
2022/12/14 11:47:23;;;;;;;30.53;15.37;;;-0.30;99.90;;;;;;5017581;28;20554;-70
2022/12/14 11:49:53;;;;;;;22.60;14.40;;;-0.30;99.90;;;;;;5017435;28;20499;-70
2022/12/14 11:52:22;;;;;;;20.47;14.70;;;-0.30;99.90;;;;;;5017299;28;20480;-68
2022/12/14 11:55:04;;;;;;;21.90;14.97;;;-0.30;99.90;;;;;;5017903;28;20461;-68
2022/12/14 11:57:37;;;;;;;21.97;15.20;;;-0.20;99.90;;;;;;5017963;28;20455;-69
2022/12/14 12:00:07;;;;;;;20.93;13.10;;;-0.20;99.90;;;;;;5017845;28;20910;-69
2022/12/14 12:02:36;;;;;;;19.20;14.40;;;-0.10;99.90;;;;;;5017851;28;20454;-68
2022/12/14 12:05:08;;;;;;;19.60;14.40;;;0.00;99.90;;;;;;5018648;28;20482;-68
2022/12/14 12:07:39;;;;;;;21.00;14.33;;;0.20;99.90;;;;;;5018734;28;20442;-68
2022/12/14 12:10:16;;;;;;;17.40;14.07;;;0.30;99.90;;;;;;5018943;28;20808;-68
2022/12/14 12:12:51;;;;;;;23.57;14.80;;;0.60;99.90;;;;;;5018450;28;20483;-68
2022/12/14 12:15:21;;;;;;;21.67;14.73;;;1.00;99.90;;;;;;5018207;28;20960;-67
2022/12/14 12:17:52;;;;;;;19.57;13.57;;;1.70;99.90;;;;;;5018189;28;20805;-67
2022/12/14 12:20:33;;;;;;;21.20;14.43;;;2.20;99.90;;;;;;5018014;28;20549;-67
2022/12/14 12:23:07;;;;;;;21.50;12.47;;;2.40;99.90;;;;;;5018048;28;20517;-67
2022/12/14 12:25:35;;;;;;;18.63;13.37;;;2.70;99.90;;;;;;5019407;28;20523;-68
2022/12/14 12:28:14;;;;;;;18.63;13.77;;;2.60;99.90;;;;;;5019053;28;20461;-67
2022/12/14 12:30:43;;;;;;;18.73;12.83;;;2.70;99.90;;;;;;5018448;28;20467;-67
2022/12/14 12:33:34;;;;;;;14.30;12.37;;;2.60;99.90;;;;;;5017671;28;20575;-67
2022/12/14 12:36:05;;;;;;;18.17;13.63;;;2.80;99.90;;;;;;5017942;28;20523;-67
2022/12/14 12:38:52;;;;;;;16.47;12.90;;;3.10;99.90;;;;;;5018119;28;20512;-68
2022/12/14 12:41:29;;;;;;;22.33;14.80;;;3.00;99.90;;;;;;5017353;28;20468;-68
2022/12/14 12:44:04;;;;;;;20.23;13.70;;;2.70;99.90;;;;;;5017466;28;20518;-68
2022/12/14 12:46:37;;;;;;;20.47;13.90;;;2.30;99.90;;;;;;5016808;28;20488;-68
2022/12/14 12:49:06;;;;;;;20.80;14.57;;;1.70;99.90;;;;;;5016824;28;20519;-67
2022/12/14 12:51:46;;;;;;;17.17;13.20;;;1.30;99.90;;;;;;5017076;28;20567;-67
2022/12/14 12:54:18;;;;;;;20.80;13.80;;;1.00;99.90;;;;;;5017156;28;20779;-68
2022/12/14 12:56:49;;;;;;;21.60;14.80;;;0.90;99.90;;;;;;5016606;28;20480;-68